createdAt,value
2023-03-07T00:00:16.814Z,100996.47
2023-03-07T00:02:47.950Z,100998.59
2023-03-07T00:05:18.843Z,101006.41
2023-03-07T00:07:53.237Z,100997.53
2023-03-07T00:10:24.607Z,100996.16
2023-03-07T00:12:58.832Z,101002.47
2023-03-07T00:15:29.454Z,101006.34
2023-03-07T00:18:00.939Z,101002.56
2023-03-07T00:20:32.263Z,100994.81
2023-03-07T00:23:02.391Z,101004.16
2023-03-07T00:25:33.393Z,101002.63
2023-03-07T00:28:04.348Z,100998.44
2023-03-07T00:30:35.513Z,101000.56
2023-03-07T00:33:06.167Z,101003.06
2023-03-07T00:35:41.097Z,100988.13
2023-03-07T00:38:12.435Z,100992.81
2023-03-07T00:40:47.393Z,100994.13
2023-03-07T00:43:19.002Z,101000.44
2023-03-07T00:45:50.467Z,100997.94
2023-03-07T00:48:23.303Z,100998.09
2023-03-07T00:50:55.026Z,101002.28
2023-03-07T00:53:27.071Z,101008.19
2023-03-07T00:56:05.440Z,100993.81
2023-03-07T00:58:38.341Z,100994.50
2023-03-07T01:01:12.066Z,100996.03
2023-03-07T01:03:45.641Z,100990.69
2023-03-07T01:06:18.643Z,100998.56
2023-03-07T01:08:50.225Z,100992.38
2023-03-07T01:11:23.923Z,100986.72
2023-03-07T01:13:58.531Z,100983.19
2023-03-07T01:16:34.800Z,100992.06
2023-03-07T01:19:09.904Z,100976.13
2023-03-07T01:21:42.096Z,100983.31
2023-03-07T01:24:21.312Z,100970.47
2023-03-07T01:26:52.764Z,100974.16
2023-03-07T01:29:25.289Z,100966.19
2023-03-07T01:31:56.447Z,100960.69
2023-03-07T01:34:27.779Z,100961.59
2023-03-07T01:37:03.712Z,100950.78
2023-03-07T01:39:42.289Z,100938.94
2023-03-07T01:42:17.631Z,100936.97
2023-03-07T01:45:10.944Z,100934.50
2023-03-07T01:47:43.038Z,100925.16
2023-03-07T01:50:20.436Z,100926.53
2023-03-07T01:53:10.750Z,100929.34
2023-03-07T01:55:42.020Z,100925.75
2023-03-07T01:58:16.385Z,100926.38
2023-03-07T02:00:46.597Z,100918.50
2023-03-07T02:03:33.773Z,100915.59
2023-03-07T02:06:06.174Z,100914.22
2023-03-07T02:08:37.484Z,100913.38
2023-03-07T02:11:09.401Z,100907.31
2023-03-07T02:13:40.741Z,100902.13
2023-03-07T02:16:14.537Z,100900.44
2023-03-07T02:18:50.389Z,100897.91
2023-03-07T02:21:37.272Z,100890.56
2023-03-07T02:24:34.050Z,100883.53
2023-03-07T02:27:08.326Z,100891.69
2023-03-07T02:29:39.483Z,100892.69
2023-03-07T02:32:11.461Z,100887.19
2023-03-07T02:34:41.593Z,100889.19
2023-03-07T02:37:18.810Z,100883.66
2023-03-07T02:39:55.965Z,100882.81
2023-03-07T02:42:28.672Z,100879.00
2023-03-07T02:45:04.218Z,100881.69
2023-03-07T02:47:35.180Z,100880.69
2023-03-07T02:50:06.536Z,100878.84
2023-03-07T02:52:37.958Z,100881.34
2023-03-07T02:55:09.533Z,100873.66
2023-03-07T02:57:40.548Z,100868.41
2023-03-07T03:00:14.434Z,100863.06
2023-03-07T03:02:45.643Z,100857.56
2023-03-07T03:05:16.667Z,100855.84
2023-03-07T03:07:47.634Z,100860.38
2023-03-07T03:10:19.424Z,100862.94
2023-03-07T03:12:50.143Z,100861.22
2023-03-07T03:15:20.697Z,100853.88
2023-03-07T03:17:51.945Z,100846.16
2023-03-07T03:20:23.154Z,100853.88
2023-03-07T03:22:55.235Z,100845.13
2023-03-07T03:25:27.360Z,100840.78
2023-03-07T03:27:58.028Z,100844.78
2023-03-07T03:30:30.354Z,100834.59
2023-03-07T03:33:01.394Z,100833.75
2023-03-07T03:35:32.240Z,100836.25
2023-03-07T03:38:03.214Z,100824.72
2023-03-07T03:40:34.229Z,100816.38
2023-03-07T03:43:05.388Z,100814.03
2023-03-07T03:45:36.056Z,100814.34
2023-03-07T03:48:06.627Z,100812.53
2023-03-07T03:50:37.284Z,100804.63
2023-03-07T03:53:08.345Z,100803.63
2023-03-07T03:55:38.793Z,100804.03
2023-03-07T03:58:09.687Z,100797.44
2023-03-07T04:00:39.898Z,100793.91
2023-03-07T04:03:10.510Z,100793.25
2023-03-07T04:05:45.133Z,100787.88
2023-03-07T04:08:15.961Z,100776.16
2023-03-07T04:10:47.741Z,100773.66
2023-03-07T04:13:18.330Z,100773.78
2023-03-07T04:15:48.425Z,100762.06
2023-03-07T04:18:18.594Z,100769.13
2023-03-07T04:20:48.935Z,100762.41
2023-03-07T04:23:19.577Z,100755.34
2023-03-07T04:25:58.979Z,100750.00
2023-03-07T04:28:45.118Z,100738.81
2023-03-07T04:31:16.378Z,100734.59
2023-03-07T04:33:46.189Z,100731.63
2023-03-07T04:36:17.852Z,100725.44
2023-03-07T04:38:48.263Z,100727.94
2023-03-07T04:41:19.796Z,100716.22
2023-03-07T04:43:49.537Z,100708.34
2023-03-07T04:46:19.393Z,100711.84
2023-03-07T04:48:49.558Z,100710.19
2023-03-07T04:51:19.181Z,100701.13
2023-03-07T04:53:48.763Z,100686.22
2023-03-07T04:56:18.496Z,100684.38
2023-03-07T04:58:48.193Z,100679.00
2023-03-07T05:01:18.148Z,100675.34
2023-03-07T05:03:47.808Z,100667.31
2023-03-07T05:06:17.925Z,100668.16
2023-03-07T05:08:47.628Z,100670.00
2023-03-07T05:11:17.428Z,100665.47
2023-03-07T05:13:47.096Z,100663.63
2023-03-07T05:16:19.137Z,100659.94
2023-03-07T05:18:48.797Z,100656.72
2023-03-07T05:21:18.452Z,100662.94
2023-03-07T05:23:48.068Z,100656.91
2023-03-07T05:26:17.769Z,100657.91
2023-03-07T05:28:47.449Z,100651.84
2023-03-07T05:31:18.428Z,100659.91
2023-03-07T05:33:48.612Z,100646.19
2023-03-07T05:36:18.757Z,100647.53
2023-03-07T05:38:48.453Z,100639.69
2023-03-07T05:41:18.981Z,100642.50
2023-03-07T05:43:48.936Z,100635.59
2023-03-07T05:46:18.720Z,100634.31
2023-03-07T05:48:48.590Z,100636.13
2023-03-07T05:51:18.315Z,100623.59
2023-03-07T05:53:48.122Z,100631.28
2023-03-07T05:56:17.765Z,100637.31
2023-03-07T05:58:47.471Z,100628.75
2023-03-07T06:01:17.195Z,100624.91
2023-03-07T06:03:46.893Z,100619.72
2023-03-07T06:06:16.608Z,100616.72
2023-03-07T06:08:46.190Z,100619.59
2023-03-07T06:11:15.938Z,100621.59
2023-03-07T06:13:45.650Z,100618.63
2023-03-07T06:16:15.375Z,100620.63
2023-03-07T06:18:45.005Z,100613.94
2023-03-07T06:21:16.891Z,100620.81
2023-03-07T06:23:46.729Z,100616.28
2023-03-07T06:26:16.620Z,100615.28
2023-03-07T06:28:46.275Z,100617.16
2023-03-07T06:31:17.901Z,100609.94
2023-03-07T06:33:49.239Z,100626.03
2023-03-07T06:36:19.893Z,100628.69
2023-03-07T06:38:49.582Z,100623.47
2023-03-07T06:41:19.394Z,100630.69
2023-03-07T06:43:52.379Z,100633.03
2023-03-07T06:46:23.116Z,100626.13
2023-03-07T06:48:53.664Z,100621.94
2023-03-07T06:51:23.226Z,100624.78
2023-03-07T06:53:52.837Z,100622.41
2023-03-07T06:56:22.501Z,100626.09
2023-03-07T06:58:52.086Z,100611.19
2023-03-07T07:01:22.435Z,100625.59
2023-03-07T07:03:52.192Z,100621.22
2023-03-07T07:06:21.888Z,100616.84
2023-03-07T07:08:51.569Z,100625.06
2023-03-07T07:11:21.131Z,100619.00
2023-03-07T07:13:52.207Z,100614.00
2023-03-07T07:16:22.085Z,100614.97
2023-03-07T07:18:54.556Z,100600.75
2023-03-07T07:21:24.147Z,100608.13
2023-03-07T07:23:53.818Z,100609.97
2023-03-07T07:26:23.552Z,100610.94
2023-03-07T07:28:53.444Z,100617.31
2023-03-07T07:31:23.174Z,100610.28
2023-03-07T07:33:52.769Z,100600.72
2023-03-07T07:36:22.962Z,100608.75
2023-03-07T07:38:52.937Z,100608.75
2023-03-07T07:41:22.616Z,100609.91
2023-03-07T07:43:55.759Z,100609.06
2023-03-07T07:46:25.563Z,100611.75
2023-03-07T07:48:55.192Z,100609.22
2023-03-07T07:51:24.758Z,100612.91
2023-03-07T07:53:54.372Z,100608.53
2023-03-07T07:56:24.049Z,100609.53
2023-03-07T07:58:54.045Z,100609.53
2023-03-07T08:01:25.145Z,100610.38
2023-03-07T08:03:54.836Z,100607.19
2023-03-07T08:06:26.368Z,100608.84
2023-03-07T08:08:56.481Z,100610.69
2023-03-07T08:11:26.201Z,100606.47
2023-03-07T08:13:55.905Z,100610.00
2023-03-07T08:16:25.870Z,100622.56
2023-03-07T08:19:00.102Z,100620.72
2023-03-07T08:21:29.181Z,100620.56
2023-03-07T08:23:58.924Z,100629.06
2023-03-07T08:26:28.707Z,100631.56
2023-03-07T08:28:58.384Z,100633.25
2023-03-07T08:31:28.183Z,100632.56
2023-03-07T08:33:57.975Z,100630.91
2023-03-07T08:36:27.701Z,100634.25
2023-03-07T08:38:57.270Z,100632.75
2023-03-07T08:41:26.896Z,100630.06
2023-03-07T08:43:56.487Z,100635.03
2023-03-07T08:46:26.114Z,100630.19
2023-03-07T08:48:55.817Z,100643.59
2023-03-07T08:51:25.557Z,100642.75
2023-03-07T08:53:55.244Z,100641.22
2023-03-07T08:56:24.896Z,100644.06
2023-03-07T08:58:57.620Z,100641.41
2023-03-07T09:01:27.537Z,100639.56
2023-03-07T09:03:57.234Z,100636.22
2023-03-07T09:06:26.791Z,100640.72
2023-03-07T09:08:56.514Z,100635.38
2023-03-07T09:11:28.074Z,100632.00
2023-03-07T09:13:57.763Z,100625.81
2023-03-07T09:16:27.363Z,100630.31
2023-03-07T09:18:57.033Z,100632.31
2023-03-07T09:21:26.734Z,100633.97
2023-03-07T09:23:56.450Z,100634.97
2023-03-07T09:26:26.158Z,100638.66
2023-03-07T09:28:55.813Z,100644.16
2023-03-07T09:31:25.458Z,100647.53
2023-03-07T09:33:55.359Z,100648.53
2023-03-07T09:36:25.061Z,100648.69
2023-03-07T09:38:56.155Z,100648.00
2023-03-07T09:41:36.266Z,100643.50
2023-03-07T09:44:30.100Z,100649.84
2023-03-07T09:47:32.950Z,100646.16
2023-03-07T09:50:03.429Z,100658.03
2023-03-07T09:52:35.804Z,100656.19
2023-03-07T09:55:13.755Z,100660.88
2023-03-07T09:58:02.465Z,100669.91
2023-03-07T10:00:47.505Z,100675.09
2023-03-07T10:03:53.711Z,100683.13
2023-03-07T10:06:41.052Z,100694.97
2023-03-07T10:09:17.124Z,100696.69
2023-03-07T10:12:12.926Z,100695.13
2023-03-07T10:14:48.641Z,100698.66
2023-03-07T10:17:18.248Z,100697.94
2023-03-07T10:19:59.595Z,100707.81
2023-03-07T10:22:41.896Z,100707.69
2023-03-07T10:25:32.784Z,100708.00
2023-03-07T10:28:26.346Z,100711.34
2023-03-07T10:31:00.121Z,100703.31
2023-03-07T10:33:29.710Z,100704.47
2023-03-07T10:36:08.878Z,100710.66
2023-03-07T10:38:44.671Z,100714.72
2023-03-07T10:41:18.841Z,100716.56
2023-03-07T10:43:49.005Z,100714.72
2023-03-07T10:46:44.081Z,100715.72
2023-03-07T10:49:46.163Z,100721.22
2023-03-07T10:52:28.854Z,100726.19
2023-03-07T10:55:19.085Z,100726.03
2023-03-07T10:57:48.685Z,100734.38
2023-03-07T11:00:20.542Z,100732.84
2023-03-07T11:02:50.370Z,100732.84
2023-03-07T11:05:34.669Z,100726.25
2023-03-07T11:08:22.029Z,100730.78
2023-03-07T11:10:51.700Z,100736.41
2023-03-07T11:13:22.714Z,100748.28
2023-03-07T11:16:00.224Z,100744.78
2023-03-07T11:18:45.709Z,100744.06
2023-03-07T11:21:34.462Z,100738.88
2023-03-07T11:24:08.986Z,100745.22
2023-03-07T11:26:42.236Z,100749.88
2023-03-07T11:29:16.017Z,100743.84
2023-03-07T11:32:07.493Z,100748.22
2023-03-07T11:34:38.097Z,100750.88
2023-03-07T11:37:16.848Z,100752.69
2023-03-07T11:40:10.422Z,100756.38
2023-03-07T11:43:18.235Z,100757.38
2023-03-07T11:46:00.452Z,100771.59
2023-03-07T11:48:36.053Z,100775.41
2023-03-07T11:51:06.182Z,100782.59
2023-03-07T11:53:55.558Z,100786.94
2023-03-07T11:56:36.160Z,100783.59
2023-03-07T11:59:30.096Z,100785.44
2023-03-07T12:02:00.806Z,100771.63
2023-03-07T12:04:42.610Z,100777.84
2023-03-07T12:07:19.690Z,100774.19
2023-03-07T12:09:55.980Z,100775.19
2023-03-07T12:12:41.006Z,100784.31
2023-03-07T12:15:31.094Z,100784.88
2023-03-07T12:18:12.787Z,100779.09
2023-03-07T12:20:48.424Z,100794.47
2023-03-07T12:23:29.566Z,100780.94
2023-03-07T12:26:01.072Z,100782.94
2023-03-07T12:28:34.031Z,100784.59
2023-03-07T12:31:31.142Z,100787.28
2023-03-07T12:34:00.913Z,100786.28
2023-03-07T12:36:38.129Z,100789.13
2023-03-07T12:39:20.030Z,100791.09
2023-03-07T12:42:07.568Z,100791.25
2023-03-07T12:44:53.497Z,100803.78
2023-03-07T12:47:53.029Z,100806.44
2023-03-07T12:50:24.132Z,100808.41
2023-03-07T12:52:59.398Z,100814.59
2023-03-07T12:55:43.748Z,100810.25
2023-03-07T12:58:35.924Z,100809.25
2023-03-07T13:01:16.843Z,100817.44
2023-03-07T13:04:11.951Z,100812.94
2023-03-07T13:06:43.250Z,100815.78
2023-03-07T13:09:24.811Z,100818.72
2023-03-07T13:12:21.498Z,100825.63
2023-03-07T13:15:19.923Z,100824.91
2023-03-07T13:17:49.470Z,100834.78
2023-03-07T13:20:21.803Z,100832.09
2023-03-07T13:22:51.523Z,100827.59
2023-03-07T13:25:39.053Z,100824.38
2023-03-07T13:28:32.659Z,100832.22
2023-03-07T13:31:31.833Z,100839.56
2023-03-07T13:34:39.166Z,100839.56
2023-03-07T13:37:44.970Z,100844.38
2023-03-07T13:40:28.056Z,100843.38
2023-03-07T13:42:57.846Z,100839.19
2023-03-07T13:45:42.724Z,100849.19
2023-03-07T13:48:38.186Z,100848.06
2023-03-07T13:51:11.441Z,100846.34
2023-03-07T13:53:48.303Z,100844.66
2023-03-07T13:56:17.947Z,100844.66
2023-03-07T13:59:05.618Z,100850.00
2023-03-07T14:01:40.983Z,100845.66
2023-03-07T14:04:40.273Z,100847.34
2023-03-07T14:07:29.549Z,100845.94
2023-03-07T14:10:22.764Z,100843.28
2023-03-07T14:13:31.252Z,100853.97
2023-03-07T14:16:19.616Z,100851.47
2023-03-07T14:18:58.652Z,100861.44
2023-03-07T14:21:48.448Z,100856.25
2023-03-07T14:24:53.282Z,100858.91
2023-03-07T14:27:22.903Z,100852.75
2023-03-07T14:29:54.213Z,100847.38
2023-03-07T14:32:33.521Z,100854.41
2023-03-07T14:35:03.226Z,100854.53
2023-03-07T14:37:34.181Z,100857.94
2023-03-07T14:40:15.927Z,100863.28
2023-03-07T14:43:01.190Z,100865.78
2023-03-07T14:45:51.293Z,100861.59
2023-03-07T14:49:16.851Z,100857.22
2023-03-07T14:51:46.522Z,100861.72
2023-03-07T14:54:23.396Z,100858.38
2023-03-07T14:56:54.173Z,100850.34
2023-03-07T14:59:29.150Z,100853.03
2023-03-07T15:01:59.734Z,100862.72
2023-03-07T15:04:33.493Z,100855.53
2023-03-07T15:07:05.903Z,100858.38
2023-03-07T15:09:36.051Z,100850.47
2023-03-07T15:12:20.771Z,100858.50
2023-03-07T15:14:56.321Z,100864.56
2023-03-07T15:17:28.230Z,100862.72
2023-03-07T15:20:06.149Z,100858.22
2023-03-07T15:22:40.925Z,100861.72
2023-03-07T15:25:31.787Z,100860.88
2023-03-07T15:28:32.331Z,100857.38
2023-03-07T15:31:02.082Z,100862.00
2023-03-07T15:33:32.856Z,100855.81
2023-03-07T15:36:31.710Z,100862.88
2023-03-07T15:39:32.748Z,100862.16
2023-03-07T15:42:03.947Z,100853.31
2023-03-07T15:44:34.532Z,100857.81
2023-03-07T15:47:15.137Z,100854.31
2023-03-07T15:49:51.002Z,100855.97
2023-03-07T15:52:52.185Z,100853.31
2023-03-07T15:55:23.102Z,100845.41
2023-03-07T15:57:54.961Z,100842.75
2023-03-07T16:00:29.642Z,100842.75
2023-03-07T16:03:16.040Z,100841.91
2023-03-07T16:05:45.724Z,100840.22
2023-03-07T16:08:16.890Z,100838.53
2023-03-07T16:10:54.615Z,100833.19
2023-03-07T16:13:25.363Z,100842.06
2023-03-07T16:16:23.209Z,100847.41
2023-03-07T16:18:53.041Z,100839.38
2023-03-07T16:21:23.170Z,100833.19
2023-03-07T16:23:52.939Z,100840.38
2023-03-07T16:26:26.124Z,100843.06
2023-03-07T16:28:55.924Z,100851.06
2023-03-07T16:31:25.547Z,100844.91
2023-03-07T16:33:56.418Z,100851.06
2023-03-07T16:36:26.037Z,100844.72
2023-03-07T16:38:55.573Z,100846.56
2023-03-07T16:41:25.715Z,100845.03
2023-03-07T16:43:59.094Z,100845.84
2023-03-07T16:46:28.796Z,100841.50
2023-03-07T16:48:58.455Z,100847.69
2023-03-07T16:51:29.826Z,100848.53
2023-03-07T16:54:01.250Z,100847.69
2023-03-07T16:56:35.986Z,100845.03
2023-03-07T16:59:05.939Z,100838.84
2023-03-07T17:01:35.564Z,100832.50
2023-03-07T17:04:05.201Z,100837.16
2023-03-07T17:06:39.444Z,100836.16
2023-03-07T17:09:11.097Z,100836.31
2023-03-07T17:11:42.547Z,100839.00
2023-03-07T17:14:12.175Z,100829.97
2023-03-07T17:16:52.072Z,100830.97
2023-03-07T17:19:33.429Z,100835.44
2023-03-07T17:22:04.350Z,100831.94
2023-03-07T17:24:33.988Z,100834.59
2023-03-07T17:27:05.125Z,100829.41
2023-03-07T17:29:45.676Z,100823.25
2023-03-07T17:32:15.305Z,100824.06
2023-03-07T17:34:45.118Z,100826.75
2023-03-07T17:37:15.182Z,100814.22
2023-03-07T17:39:45.203Z,100814.38
2023-03-07T17:42:14.990Z,100815.22
2023-03-07T17:44:44.569Z,100811.53
2023-03-07T17:47:14.147Z,100816.91
2023-03-07T17:49:45.743Z,100809.03
2023-03-07T17:52:16.433Z,100809.03
2023-03-07T17:54:47.460Z,100815.06
2023-03-07T17:57:17.833Z,100812.53
2023-03-07T17:59:47.449Z,100802.69
2023-03-07T18:02:17.221Z,100810.84
2023-03-07T18:04:46.915Z,100808.03
2023-03-07T18:07:19.822Z,100806.38
2023-03-07T18:09:56.107Z,100793.00
2023-03-07T18:12:32.226Z,100800.84
2023-03-07T18:15:01.929Z,100797.47
2023-03-07T18:17:46.846Z,100797.63
2023-03-07T18:20:17.007Z,100801.97
2023-03-07T18:22:46.703Z,100793.97
2023-03-07T18:25:17.379Z,100796.50
2023-03-07T18:27:47.107Z,100791.16
2023-03-07T18:30:17.201Z,100791.16
2023-03-07T18:32:46.878Z,100792.28
2023-03-07T18:35:19.483Z,100790.31
2023-03-07T18:37:49.065Z,100793.28
2023-03-07T18:40:21.908Z,100780.59
2023-03-07T18:42:51.682Z,100781.44
2023-03-07T18:45:21.368Z,100782.44
2023-03-07T18:47:51.052Z,100781.59
2023-03-07T18:50:20.753Z,100775.56
2023-03-07T18:52:51.908Z,100766.56
2023-03-07T18:55:21.617Z,100773.56
2023-03-07T18:57:51.258Z,100761.22
2023-03-07T19:00:21.199Z,100755.03
2023-03-07T19:02:50.888Z,100756.69
2023-03-07T19:05:20.509Z,100754.19
2023-03-07T19:07:50.165Z,100747.13
2023-03-07T19:10:19.994Z,100746.16
2023-03-07T19:12:49.605Z,100742.50
2023-03-07T19:15:19.333Z,100748.97
2023-03-07T19:17:49.024Z,100744.34
2023-03-07T19:20:18.733Z,100742.63
2023-03-07T19:22:48.313Z,100744.34
2023-03-07T19:25:18.179Z,100739.97
2023-03-07T19:27:47.824Z,100735.47
2023-03-07T19:30:17.623Z,100745.31
2023-03-07T19:32:47.522Z,100746.47
2023-03-07T19:35:17.287Z,100742.78
2023-03-07T19:37:46.798Z,100734.78
2023-03-07T19:40:16.465Z,100737.44
2023-03-07T19:42:46.121Z,100733.78
2023-03-07T19:45:15.870Z,100734.78
2023-03-07T19:47:45.505Z,100740.97
2023-03-07T19:50:15.110Z,100745.31
2023-03-07T19:52:44.646Z,100746.47
2023-03-07T19:55:14.350Z,100751.09
2023-03-07T19:57:44.080Z,100753.78
2023-03-07T20:00:15.227Z,100770.50
2023-03-07T20:02:44.868Z,100771.78
2023-03-07T20:05:14.469Z,100773.31
2023-03-07T20:07:44.304Z,100768.97
2023-03-07T20:10:14.139Z,100767.28
2023-03-07T20:12:43.875Z,100764.63
2023-03-07T20:15:14.395Z,100765.44
2023-03-07T20:17:44.037Z,100766.28
2023-03-07T20:20:14.264Z,100775.31
2023-03-07T20:22:44.042Z,100770.09
2023-03-07T20:25:13.652Z,100774.47
2023-03-07T20:27:43.233Z,100770.25
2023-03-07T20:30:13.884Z,100771.09
2023-03-07T20:32:43.635Z,100772.63
2023-03-07T20:35:13.275Z,100771.78
2023-03-07T20:37:42.895Z,100763.78
2023-03-07T20:40:13.242Z,100761.22
2023-03-07T20:42:42.854Z,100766.44
2023-03-07T20:45:13.300Z,100767.41
2023-03-07T20:47:42.891Z,100773.59
2023-03-07T20:50:13.290Z,100773.47
2023-03-07T20:52:42.916Z,100774.59
2023-03-07T20:55:12.737Z,100775.31
2023-03-07T20:57:42.321Z,100777.97
2023-03-07T21:00:13.076Z,100780.66
2023-03-07T21:02:43.405Z,100780.66
2023-03-07T21:05:12.994Z,100787.22
2023-03-07T21:07:42.785Z,100789.44
2023-03-07T21:10:13.877Z,100787.28
2023-03-07T21:12:43.444Z,100785.84
2023-03-07T21:15:13.499Z,100782.31
2023-03-07T21:17:43.365Z,100788.28
2023-03-07T21:20:14.107Z,100794.09
2023-03-07T21:22:43.686Z,100796.28
2023-03-07T21:25:13.217Z,100798.72
2023-03-07T21:27:42.972Z,100796.94
2023-03-07T21:30:13.139Z,100796.31
2023-03-07T21:32:42.853Z,100802.56
2023-03-07T21:35:12.977Z,100801.94
2023-03-07T21:37:42.666Z,100808.50
2023-03-07T21:40:12.984Z,100812.00
2023-03-07T21:42:42.666Z,100802.09
2023-03-07T21:45:13.746Z,100805.19
2023-03-07T21:47:43.886Z,100816.63
2023-03-07T21:50:14.242Z,100817.88
2023-03-07T21:52:44.021Z,100826.34
2023-03-07T21:55:15.187Z,100819.59
2023-03-07T21:57:45.178Z,100810.34
2023-03-07T22:00:18.356Z,100817.72
2023-03-07T22:02:48.047Z,100810.44
2023-03-07T22:05:17.629Z,100809.50
2023-03-07T22:07:47.382Z,100810.91
2023-03-07T22:10:16.981Z,100806.72
2023-03-07T22:12:46.569Z,100802.03
2023-03-07T22:15:16.960Z,100807.66
2023-03-07T22:17:46.545Z,100811.69
2023-03-07T22:20:16.334Z,100820.25
2023-03-07T22:22:46.073Z,100825.22
2023-03-07T22:25:15.725Z,100826.44
2023-03-07T22:27:46.923Z,100820.59
2023-03-07T22:30:16.637Z,100828.53
2023-03-07T22:32:49.423Z,100830.38
2023-03-07T22:35:19.270Z,100829.06
2023-03-07T22:37:48.917Z,100841.19
2023-03-07T22:40:18.615Z,100831.59
2023-03-07T22:42:48.211Z,100841.53
2023-03-07T22:45:17.890Z,100833.47
2023-03-07T22:47:47.607Z,100835.97
2023-03-07T22:50:17.267Z,100840.66
2023-03-07T22:52:46.972Z,100833.06
2023-03-07T22:55:16.558Z,100837.44
2023-03-07T22:57:46.158Z,100844.97
2023-03-07T23:00:16.360Z,100857.41
2023-03-07T23:02:46.107Z,100861.97
2023-03-07T23:05:15.719Z,100861.97
2023-03-07T23:07:47.165Z,100865.41
2023-03-07T23:10:18.586Z,100869.69
2023-03-07T23:12:51.165Z,100865.00
2023-03-07T23:15:20.976Z,100862.81
2023-03-07T23:17:50.924Z,100855.84
2023-03-07T23:20:21.320Z,100860.63
2023-03-07T23:22:51.202Z,100867.84
2023-03-07T23:25:21.127Z,100881.84
2023-03-07T23:27:50.763Z,100877.13
2023-03-07T23:30:21.038Z,100876.19
2023-03-07T23:32:50.608Z,100869.13
2023-03-07T23:35:20.297Z,100862.22
2023-03-07T23:37:50.389Z,100859.88
2023-03-07T23:40:20.117Z,100876.78
2023-03-07T23:42:50.140Z,100884.53
2023-03-07T23:45:22.022Z,100884.72
2023-03-07T23:47:52.150Z,100898.75
2023-03-07T23:50:22.010Z,100901.66
2023-03-07T23:52:51.845Z,100898.78
2023-03-07T23:55:21.538Z,100907.31
2023-03-07T23:57:51.206Z,100915.66
